sensor_id;sensor_type;location;lat;lon;timestamp;temperature;humidity
31809;DHT22;18379;48.208;-1.518;2023-04-05T00:04:24;6.90;99.90
31809;DHT22;18379;48.208;-1.518;2023-04-05T00:09:27;6.70;99.90
31809;DHT22;18379;48.208;-1.518;2023-04-05T00:14:31;6.60;99.90
31809;DHT22;18379;48.208;-1.518;2023-04-05T00:19:32;6.60;99.90
31809;DHT22;18379;48.208;-1.518;2023-04-05T00:24:35;6.50;99.90
31809;DHT22;18379;48.208;-1.518;2023-04-05T00:29:44;6.30;99.90
31809;DHT22;18379;48.208;-1.518;2023-04-05T00:34:45;6.20;99.90
31809;DHT22;18379;48.208;-1.518;2023-04-05T00:39:49;6.10;99.90
31809;DHT22;18379;48.208;-1.518;2023-04-05T00:44:51;6.00;99.90
31809;DHT22;18379;48.208;-1.518;2023-04-05T00:49:55;5.90;99.90
31809;DHT22;18379;48.208;-1.518;2023-04-05T00:54:58;5.90;99.90
31809;DHT22;18379;48.208;-1.518;2023-04-05T01:00:06;5.80;99.90
31809;DHT22;18379;48.208;-1.518;2023-04-05T01:05:29;5.80;99.90
31809;DHT22;18379;48.208;-1.518;2023-04-05T01:10:36;5.70;99.90
31809;DHT22;18379;48.208;-1.518;2023-04-05T01:15:40;5.70;99.90
31809;DHT22;18379;48.208;-1.518;2023-04-05T01:20:49;5.60;99.90
31809;DHT22;18379;48.208;-1.518;2023-04-05T01:36:59;5.40;99.90
31809;DHT22;18379;48.208;-1.518;2023-04-05T01:42:03;5.30;99.90
31809;DHT22;18379;48.208;-1.518;2023-04-05T01:47:06;5.30;99.90
31809;DHT22;18379;48.208;-1.518;2023-04-05T01:52:08;5.30;99.90
31809;DHT22;18379;48.208;-1.518;2023-04-05T01:57:13;5.20;99.90
31809;DHT22;18379;48.208;-1.518;2023-04-05T02:02:16;5.20;99.90
31809;DHT22;18379;48.208;-1.518;2023-04-05T02:07:17;5.20;99.90
31809;DHT22;18379;48.208;-1.518;2023-04-05T02:12:18;5.10;99.90
31809;DHT22;18379;48.208;-1.518;2023-04-05T02:17:22;5.10;99.90
31809;DHT22;18379;48.208;-1.518;2023-04-05T02:22:24;5.10;99.90
31809;DHT22;18379;48.208;-1.518;2023-04-05T02:27:25;5.00;99.90
31809;DHT22;18379;48.208;-1.518;2023-04-05T02:32:27;5.00;99.90
31809;DHT22;18379;48.208;-1.518;2023-04-05T02:37:28;4.90;99.90
31809;DHT22;18379;48.208;-1.518;2023-04-05T02:42:31;4.80;99.90
31809;DHT22;18379;48.208;-1.518;2023-04-05T02:47:32;4.70;99.90
31809;DHT22;18379;48.208;-1.518;2023-04-05T02:52:33;4.60;99.90
31809;DHT22;18379;48.208;-1.518;2023-04-05T02:57:38;4.50;99.90
31809;DHT22;18379;48.208;-1.518;2023-04-05T03:02:42;4.60;99.90
31809;DHT22;18379;48.208;-1.518;2023-04-05T03:07:44;4.50;99.90
31809;DHT22;18379;48.208;-1.518;2023-04-05T03:12:51;4.40;99.90
31809;DHT22;18379;48.208;-1.518;2023-04-05T03:17:56;4.30;99.90
31809;DHT22;18379;48.208;-1.518;2023-04-05T03:22:58;4.20;99.90
31809;DHT22;18379;48.208;-1.518;2023-04-05T03:28:01;4.20;99.90
31809;DHT22;18379;48.208;-1.518;2023-04-05T03:33:13;4.10;99.90
31809;DHT22;18379;48.208;-1.518;2023-04-05T03:38:35;4.10;99.90
31809;DHT22;18379;48.208;-1.518;2023-04-05T03:43:43;4.10;99.90
31809;DHT22;18379;48.208;-1.518;2023-04-05T03:49:23;4.10;99.90
31809;DHT22;18379;48.208;-1.518;2023-04-05T03:54:29;4.10;99.90
31809;DHT22;18379;48.208;-1.518;2023-04-05T03:59:36;4.10;99.90
31809;DHT22;18379;48.208;-1.518;2023-04-05T04:04:45;4.10;99.90
31809;DHT22;18379;48.208;-1.518;2023-04-05T04:09:52;4.20;99.90
31809;DHT22;18379;48.208;-1.518;2023-04-05T04:14:58;4.30;99.90
31809;DHT22;18379;48.208;-1.518;2023-04-05T04:20:00;4.40;99.90
31809;DHT22;18379;48.208;-1.518;2023-04-05T04:25:02;4.50;99.90
31809;DHT22;18379;48.208;-1.518;2023-04-05T04:30:09;4.60;99.90
31809;DHT22;18379;48.208;-1.518;2023-04-05T04:35:15;4.70;99.90
31809;DHT22;18379;48.208;-1.518;2023-04-05T04:40:21;4.90;99.90
31809;DHT22;18379;48.208;-1.518;2023-04-05T04:45:31;5.00;99.90
31809;DHT22;18379;48.208;-1.518;2023-04-05T04:50:38;5.10;99.90
31809;DHT22;18379;48.208;-1.518;2023-04-05T04:55:51;5.20;99.90
31809;DHT22;18379;48.208;-1.518;2023-04-05T05:00:55;5.20;99.90
31809;DHT22;18379;48.208;-1.518;2023-04-05T05:05:59;5.30;99.90
31809;DHT22;18379;48.208;-1.518;2023-04-05T05:11:06;5.40;99.90
31809;DHT22;18379;48.208;-1.518;2023-04-05T05:16:10;5.50;99.90
31809;DHT22;18379;48.208;-1.518;2023-04-05T05:21:11;5.40;99.90
31809;DHT22;18379;48.208;-1.518;2023-04-05T05:26:12;5.40;99.90
31809;DHT22;18379;48.208;-1.518;2023-04-05T05:31:14;5.40;99.90
31809;DHT22;18379;48.208;-1.518;2023-04-05T05:36:17;5.40;99.90
31809;DHT22;18379;48.208;-1.518;2023-04-05T05:41:19;5.40;99.90
31809;DHT22;18379;48.208;-1.518;2023-04-05T05:46:21;5.40;99.90
31809;DHT22;18379;48.208;-1.518;2023-04-05T05:51:22;5.40;99.90
31809;DHT22;18379;48.208;-1.518;2023-04-05T05:56:25;5.40;99.90
31809;DHT22;18379;48.208;-1.518;2023-04-05T06:01:25;5.40;99.90
31809;DHT22;18379;48.208;-1.518;2023-04-05T06:06:27;5.40;99.90
31809;DHT22;18379;48.208;-1.518;2023-04-05T06:11:29;5.40;99.90
31809;DHT22;18379;48.208;-1.518;2023-04-05T06:16:30;5.30;99.90
31809;DHT22;18379;48.208;-1.518;2023-04-05T06:21:31;5.30;99.90
31809;DHT22;18379;48.208;-1.518;2023-04-05T06:26:31;5.40;99.90
31809;DHT22;18379;48.208;-1.518;2023-04-05T06:31:34;5.60;99.90
31809;DHT22;18379;48.208;-1.518;2023-04-05T06:36:35;5.70;99.90
31809;DHT22;18379;48.208;-1.518;2023-04-05T06:41:36;5.80;99.90
31809;DHT22;18379;48.208;-1.518;2023-04-05T06:46:37;6.00;99.90
31809;DHT22;18379;48.208;-1.518;2023-04-05T06:51:38;6.10;99.90
31809;DHT22;18379;48.208;-1.518;2023-04-05T06:56:39;6.20;99.90
31809;DHT22;18379;48.208;-1.518;2023-04-05T07:01:40;6.40;99.90
31809;DHT22;18379;48.208;-1.518;2023-04-05T07:06:41;6.50;99.90
31809;DHT22;18379;48.208;-1.518;2023-04-05T07:11:42;6.70;99.90
31809;DHT22;18379;48.208;-1.518;2023-04-05T07:16:43;6.80;99.90
31809;DHT22;18379;48.208;-1.518;2023-04-05T07:21:43;7.00;99.90
31809;DHT22;18379;48.208;-1.518;2023-04-05T07:26:44;7.30;99.90
31809;DHT22;18379;48.208;-1.518;2023-04-05T07:31:45;7.40;99.90
31809;DHT22;18379;48.208;-1.518;2023-04-05T07:36:46;7.40;99.90
31809;DHT22;18379;48.208;-1.518;2023-04-05T07:41:46;7.50;99.90
31809;DHT22;18379;48.208;-1.518;2023-04-05T07:46:47;7.60;99.90
31809;DHT22;18379;48.208;-1.518;2023-04-05T07:51:48;7.70;99.90
31809;DHT22;18379;48.208;-1.518;2023-04-05T07:56:50;7.80;99.90
31809;DHT22;18379;48.208;-1.518;2023-04-05T08:01:51;8.00;99.90
31809;DHT22;18379;48.208;-1.518;2023-04-05T08:06:52;8.20;99.90
31809;DHT22;18379;48.208;-1.518;2023-04-05T08:11:53;8.40;99.90
31809;DHT22;18379;48.208;-1.518;2023-04-05T08:16:56;8.60;99.90
31809;DHT22;18379;48.208;-1.518;2023-04-05T08:21:57;8.70;99.90
31809;DHT22;18379;48.208;-1.518;2023-04-05T08:26:58;8.90;99.90
31809;DHT22;18379;48.208;-1.518;2023-04-05T08:31:59;9.20;99.90
31809;DHT22;18379;48.208;-1.518;2023-04-05T08:37:59;9.50;99.90
31809;DHT22;18379;48.208;-1.518;2023-04-05T08:43:12;9.80;99.90
31809;DHT22;18379;48.208;-1.518;2023-04-05T08:48:15;10.00;99.90
31809;DHT22;18379;48.208;-1.518;2023-04-05T08:53:16;10.10;99.90
31809;DHT22;18379;48.208;-1.518;2023-04-05T08:58:20;10.30;99.90
31809;DHT22;18379;48.208;-1.518;2023-04-05T09:03:29;10.70;99.90
31809;DHT22;18379;48.208;-1.518;2023-04-05T09:08:30;10.70;99.90
31809;DHT22;18379;48.208;-1.518;2023-04-05T09:13:31;10.80;99.90
31809;DHT22;18379;48.208;-1.518;2023-04-05T09:18:32;10.80;99.90
31809;DHT22;18379;48.208;-1.518;2023-04-05T09:23:33;10.90;99.90
31809;DHT22;18379;48.208;-1.518;2023-04-05T09:28:41;10.80;99.90
31809;DHT22;18379;48.208;-1.518;2023-04-05T09:33:42;10.80;99.90
31809;DHT22;18379;48.208;-1.518;2023-04-05T09:38:45;10.60;99.90
31809;DHT22;18379;48.208;-1.518;2023-04-05T09:43:47;10.70;99.90
31809;DHT22;18379;48.208;-1.518;2023-04-05T09:48:48;11.30;99.90
31809;DHT22;18379;48.208;-1.518;2023-04-05T09:54:16;11.60;99.90
31809;DHT22;18379;48.208;-1.518;2023-04-05T09:59:16;11.90;99.90
31809;DHT22;18379;48.208;-1.518;2023-04-05T10:04:25;12.30;99.90
31809;DHT22;18379;48.208;-1.518;2023-04-05T10:09:27;12.40;99.90
31809;DHT22;18379;48.208;-1.518;2023-04-05T10:14:28;12.80;99.90
31809;DHT22;18379;48.208;-1.518;2023-04-05T10:24:51;13.70;99.90
31809;DHT22;18379;48.208;-1.518;2023-04-05T10:30:09;13.80;99.90
31809;DHT22;18379;48.208;-1.518;2023-04-05T10:35:38;14.00;99.90
31809;DHT22;18379;48.208;-1.518;2023-04-05T10:40:52;14.20;99.90
31809;DHT22;18379;48.208;-1.518;2023-04-05T10:45:58;14.10;99.90
31809;DHT22;18379;48.208;-1.518;2023-04-05T10:51:00;13.80;99.90
31809;DHT22;18379;48.208;-1.518;2023-04-05T10:56:03;13.80;99.90
31809;DHT22;18379;48.208;-1.518;2023-04-05T11:01:07;14.00;99.90
31809;DHT22;18379;48.208;-1.518;2023-04-05T11:06:30;14.50;99.90
31809;DHT22;18379;48.208;-1.518;2023-04-05T11:11:38;14.30;99.90
31809;DHT22;18379;48.208;-1.518;2023-04-05T11:16:39;14.30;99.90
31809;DHT22;18379;48.208;-1.518;2023-04-05T11:21:40;14.80;99.90
31809;DHT22;18379;48.208;-1.518;2023-04-05T11:31:57;14.80;99.90
31809;DHT22;18379;48.208;-1.518;2023-04-05T11:37:01;15.10;99.90
31809;DHT22;18379;48.208;-1.518;2023-04-05T11:42:04;15.40;99.90
31809;DHT22;18379;48.208;-1.518;2023-04-05T11:47:08;15.30;99.90
31809;DHT22;18379;48.208;-1.518;2023-04-05T11:52:13;15.30;99.90
31809;DHT22;18379;48.208;-1.518;2023-04-05T11:57:21;15.40;99.90
31809;DHT22;18379;48.208;-1.518;2023-04-05T12:02:22;15.50;99.90
31809;DHT22;18379;48.208;-1.518;2023-04-05T12:07:25;15.40;99.90
31809;DHT22;18379;48.208;-1.518;2023-04-05T12:12:38;15.40;99.90
31809;DHT22;18379;48.208;-1.518;2023-04-05T12:17:49;15.50;99.90
31809;DHT22;18379;48.208;-1.518;2023-04-05T12:22:54;15.90;99.90
31809;DHT22;18379;48.208;-1.518;2023-04-05T12:27:56;16.10;99.90
31809;DHT22;18379;48.208;-1.518;2023-04-05T12:33:06;16.00;99.90
31809;DHT22;18379;48.208;-1.518;2023-04-05T12:38:13;16.10;99.90
31809;DHT22;18379;48.208;-1.518;2023-04-05T12:43:16;16.40;99.90
31809;DHT22;18379;48.208;-1.518;2023-04-05T12:48:22;16.20;99.90
31809;DHT22;18379;48.208;-1.518;2023-04-05T12:53:25;15.60;99.90
31809;DHT22;18379;48.208;-1.518;2023-04-05T12:58:35;15.30;99.90
31809;DHT22;18379;48.208;-1.518;2023-04-05T13:03:36;15.40;99.90
31809;DHT22;18379;48.208;-1.518;2023-04-05T13:08:37;15.70;99.90
31809;DHT22;18379;48.208;-1.518;2023-04-05T13:13:38;16.40;99.90
31809;DHT22;18379;48.208;-1.518;2023-04-05T13:18:39;16.30;99.90
31809;DHT22;18379;48.208;-1.518;2023-04-05T13:23:40;16.60;99.90
31809;DHT22;18379;48.208;-1.518;2023-04-05T13:28:43;16.60;99.90
31809;DHT22;18379;48.208;-1.518;2023-04-05T13:33:45;16.90;99.90
31809;DHT22;18379;48.208;-1.518;2023-04-05T13:38:46;17.10;99.90
31809;DHT22;18379;48.208;-1.518;2023-04-05T13:43:46;17.20;99.90
31809;DHT22;18379;48.208;-1.518;2023-04-05T13:48:47;17.00;99.90
31809;DHT22;18379;48.208;-1.518;2023-04-05T13:53:48;16.90;99.90
31809;DHT22;18379;48.208;-1.518;2023-04-05T13:58:49;17.10;99.90
31809;DHT22;18379;48.208;-1.518;2023-04-05T14:03:50;17.90;99.90
31809;DHT22;18379;48.208;-1.518;2023-04-05T14:08:51;18.00;99.90
31809;DHT22;18379;48.208;-1.518;2023-04-05T14:13:54;18.10;99.90
31809;DHT22;18379;48.208;-1.518;2023-04-05T14:18:55;17.80;96.80
31809;DHT22;18379;48.208;-1.518;2023-04-05T14:23:56;17.60;98.80
31809;DHT22;18379;48.208;-1.518;2023-04-05T14:28:57;17.10;98.80
31809;DHT22;18379;48.208;-1.518;2023-04-05T14:33:58;16.80;99.90
31809;DHT22;18379;48.208;-1.518;2023-04-05T14:38:59;16.80;99.90
31809;DHT22;18379;48.208;-1.518;2023-04-05T14:44:01;16.50;99.90
31809;DHT22;18379;48.208;-1.518;2023-04-05T14:49:03;16.70;99.90
31809;DHT22;18379;48.208;-1.518;2023-04-05T14:54:05;17.00;99.90
31809;DHT22;18379;48.208;-1.518;2023-04-05T14:59:06;16.90;99.90
31809;DHT22;18379;48.208;-1.518;2023-04-05T15:04:06;16.60;99.90
31809;DHT22;18379;48.208;-1.518;2023-04-05T15:09:07;16.50;99.90
31809;DHT22;18379;48.208;-1.518;2023-04-05T15:14:08;16.70;99.90
31809;DHT22;18379;48.208;-1.518;2023-04-05T15:19:09;16.70;99.90
31809;DHT22;18379;48.208;-1.518;2023-04-05T15:24:10;16.50;99.90
31809;DHT22;18379;48.208;-1.518;2023-04-05T15:29:11;16.80;99.90
31809;DHT22;18379;48.208;-1.518;2023-04-05T15:34:12;16.90;99.90
31809;DHT22;18379;48.208;-1.518;2023-04-05T15:39:12;16.90;99.90
31809;DHT22;18379;48.208;-1.518;2023-04-05T15:44:14;17.20;99.90
31809;DHT22;18379;48.208;-1.518;2023-04-05T15:49:15;17.40;99.90
31809;DHT22;18379;48.208;-1.518;2023-04-05T15:54:16;17.40;99.90
31809;DHT22;18379;48.208;-1.518;2023-04-05T15:59:24;17.40;99.90
31809;DHT22;18379;48.208;-1.518;2023-04-05T16:04:27;17.90;99.90
31809;DHT22;18379;48.208;-1.518;2023-04-05T16:09:29;18.50;99.90
31809;DHT22;18379;48.208;-1.518;2023-04-05T16:14:30;18.90;99.90
31809;DHT22;18379;48.208;-1.518;2023-04-05T16:19:31;19.20;99.90
31809;DHT22;18379;48.208;-1.518;2023-04-05T16:24:31;19.00;99.80
31809;DHT22;18379;48.208;-1.518;2023-04-05T16:29:33;18.90;99.90
31809;DHT22;18379;48.208;-1.518;2023-04-05T16:34:34;18.60;99.90
31809;DHT22;18379;48.208;-1.518;2023-04-05T16:39:35;17.80;99.90
31809;DHT22;18379;48.208;-1.518;2023-04-05T16:44:36;17.60;99.90
31809;DHT22;18379;48.208;-1.518;2023-04-05T16:49:36;17.10;99.90
31809;DHT22;18379;48.208;-1.518;2023-04-05T16:54:37;16.70;99.90
31809;DHT22;18379;48.208;-1.518;2023-04-05T16:59:38;16.60;99.90
31809;DHT22;18379;48.208;-1.518;2023-04-05T17:04:40;16.50;99.90
31809;DHT22;18379;48.208;-1.518;2023-04-05T17:09:41;16.30;99.90
31809;DHT22;18379;48.208;-1.518;2023-04-05T17:14:42;16.20;99.90
31809;DHT22;18379;48.208;-1.518;2023-04-05T17:19:42;16.10;99.90
31809;DHT22;18379;48.208;-1.518;2023-04-05T17:24:44;16.00;99.90
31809;DHT22;18379;48.208;-1.518;2023-04-05T17:29:45;15.70;99.90
31809;DHT22;18379;48.208;-1.518;2023-04-05T17:34:46;15.50;99.90
31809;DHT22;18379;48.208;-1.518;2023-04-05T17:39:47;15.40;99.90
31809;DHT22;18379;48.208;-1.518;2023-04-05T17:44:58;15.30;99.90
31809;DHT22;18379;48.208;-1.518;2023-04-05T17:50:09;15.30;99.90
31809;DHT22;18379;48.208;-1.518;2023-04-05T17:55:10;15.20;99.90
31809;DHT22;18379;48.208;-1.518;2023-04-05T18:00:11;15.30;99.90
31809;DHT22;18379;48.208;-1.518;2023-04-05T18:05:12;15.20;99.90
31809;DHT22;18379;48.208;-1.518;2023-04-05T18:10:13;15.10;99.90
31809;DHT22;18379;48.208;-1.518;2023-04-05T18:15:14;15.00;99.90
31809;DHT22;18379;48.208;-1.518;2023-04-05T18:20:16;15.00;99.90
31809;DHT22;18379;48.208;-1.518;2023-04-05T18:25:17;14.90;99.90
31809;DHT22;18379;48.208;-1.518;2023-04-05T18:30:18;14.80;99.90
31809;DHT22;18379;48.208;-1.518;2023-04-05T18:35:18;14.70;99.90
31809;DHT22;18379;48.208;-1.518;2023-04-05T18:40:20;14.50;99.90
31809;DHT22;18379;48.208;-1.518;2023-04-05T18:45:21;14.40;99.90
31809;DHT22;18379;48.208;-1.518;2023-04-05T18:50:22;14.30;99.90
31809;DHT22;18379;48.208;-1.518;2023-04-05T18:55:23;14.30;99.90
31809;DHT22;18379;48.208;-1.518;2023-04-05T19:00:24;14.20;99.90
31809;DHT22;18379;48.208;-1.518;2023-04-05T19:05:25;14.20;99.90
31809;DHT22;18379;48.208;-1.518;2023-04-05T19:10:26;14.10;99.90
31809;DHT22;18379;48.208;-1.518;2023-04-05T19:15:26;14.00;99.90
31809;DHT22;18379;48.208;-1.518;2023-04-05T19:20:27;13.90;99.90
31809;DHT22;18379;48.208;-1.518;2023-04-05T19:25:29;13.30;99.90
31809;DHT22;18379;48.208;-1.518;2023-04-05T19:30:31;12.70;99.90
31809;DHT22;18379;48.208;-1.518;2023-04-05T19:35:31;12.10;99.90
31809;DHT22;18379;48.208;-1.518;2023-04-05T19:40:32;11.80;99.90
31809;DHT22;18379;48.208;-1.518;2023-04-05T19:45:33;11.70;99.90
31809;DHT22;18379;48.208;-1.518;2023-04-05T19:50:45;11.60;99.90
31809;DHT22;18379;48.208;-1.518;2023-04-05T19:55:50;11.50;99.90
31809;DHT22;18379;48.208;-1.518;2023-04-05T20:00:51;11.40;99.90
31809;DHT22;18379;48.208;-1.518;2023-04-05T20:06:07;11.50;99.90
31809;DHT22;18379;48.208;-1.518;2023-04-05T20:11:14;11.30;99.90
31809;DHT22;18379;48.208;-1.518;2023-04-05T20:16:16;11.20;99.90
31809;DHT22;18379;48.208;-1.518;2023-04-05T20:21:18;10.90;99.90
31809;DHT22;18379;48.208;-1.518;2023-04-05T20:26:28;10.90;99.90
31809;DHT22;18379;48.208;-1.518;2023-04-05T20:31:31;10.90;99.90
31809;DHT22;18379;48.208;-1.518;2023-04-05T20:36:34;10.80;99.90
31809;DHT22;18379;48.208;-1.518;2023-04-05T20:41:35;10.80;99.90
31809;DHT22;18379;48.208;-1.518;2023-04-05T20:46:42;10.80;99.90
31809;DHT22;18379;48.208;-1.518;2023-04-05T20:51:43;10.80;99.90
31809;DHT22;18379;48.208;-1.518;2023-04-05T20:56:44;10.70;99.90
31809;DHT22;18379;48.208;-1.518;2023-04-05T21:01:45;10.80;99.90
31809;DHT22;18379;48.208;-1.518;2023-04-05T21:06:46;10.80;99.90
31809;DHT22;18379;48.208;-1.518;2023-04-05T21:11:47;10.70;99.90
31809;DHT22;18379;48.208;-1.518;2023-04-05T21:16:52;10.70;99.90
31809;DHT22;18379;48.208;-1.518;2023-04-05T21:21:53;10.60;99.90
31809;DHT22;18379;48.208;-1.518;2023-04-05T21:26:54;10.60;99.90
31809;DHT22;18379;48.208;-1.518;2023-04-05T21:32:10;10.60;99.90
31809;DHT22;18379;48.208;-1.518;2023-04-05T21:37:11;10.40;99.90
31809;DHT22;18379;48.208;-1.518;2023-04-05T21:42:12;10.40;99.90
31809;DHT22;18379;48.208;-1.518;2023-04-05T21:47:13;10.30;99.90
31809;DHT22;18379;48.208;-1.518;2023-04-05T21:52:13;10.40;99.90
31809;DHT22;18379;48.208;-1.518;2023-04-05T21:57:14;10.40;99.90
31809;DHT22;18379;48.208;-1.518;2023-04-05T22:02:16;10.30;99.90
31809;DHT22;18379;48.208;-1.518;2023-04-05T22:07:17;10.40;99.90
31809;DHT22;18379;48.208;-1.518;2023-04-05T22:12:18;10.50;99.90
31809;DHT22;18379;48.208;-1.518;2023-04-05T22:17:21;10.40;99.90
31809;DHT22;18379;48.208;-1.518;2023-04-05T22:22:22;10.50;99.90
31809;DHT22;18379;48.208;-1.518;2023-04-05T22:27:23;10.40;99.90
31809;DHT22;18379;48.208;-1.518;2023-04-05T22:32:23;10.50;99.90
31809;DHT22;18379;48.208;-1.518;2023-04-05T22:37:25;10.50;99.90
31809;DHT22;18379;48.208;-1.518;2023-04-05T22:42:25;10.50;99.90
31809;DHT22;18379;48.208;-1.518;2023-04-05T22:47:26;10.50;99.90
31809;DHT22;18379;48.208;-1.518;2023-04-05T22:52:27;10.50;99.90
31809;DHT22;18379;48.208;-1.518;2023-04-05T22:57:28;10.50;99.90
31809;DHT22;18379;48.208;-1.518;2023-04-05T23:02:31;10.60;99.90
31809;DHT22;18379;48.208;-1.518;2023-04-05T23:07:34;10.60;99.90
31809;DHT22;18379;48.208;-1.518;2023-04-05T23:12:47;10.70;99.90
31809;DHT22;18379;48.208;-1.518;2023-04-05T23:17:48;10.70;99.90
31809;DHT22;18379;48.208;-1.518;2023-04-05T23:22:49;10.70;99.90
31809;DHT22;18379;48.208;-1.518;2023-04-05T23:27:50;10.70;99.90
31809;DHT22;18379;48.208;-1.518;2023-04-05T23:32:53;10.60;99.90
31809;DHT22;18379;48.208;-1.518;2023-04-05T23:37:53;10.60;99.90
31809;DHT22;18379;48.208;-1.518;2023-04-05T23:42:54;10.60;99.90
31809;DHT22;18379;48.208;-1.518;2023-04-05T23:47:55;10.50;99.90
31809;DHT22;18379;48.208;-1.518;2023-04-05T23:52:56;10.50;99.90
31809;DHT22;18379;48.208;-1.518;2023-04-05T23:57:57;10.50;99.90
